Latest Weather Observations for Port Fairy

IDV60801

Issued at 9:12 pm EST Sunday 3 July 2022 (issued every 10 minutes, with the page automatically refreshed every 10 minutes)

About weather observations | Map of weather stations | Latest weather observations for VIC | Other Formats
Station Details ID: 090175 Name: PORT FAIRY AWS Lat: -38.39 Lon: 142.23 Height: 10.0 m
Data from the previous 72 hours. | See also: Recent months at Port Fairy
Date/Time
EST
Temp
°C
App
Temp
°C
Dew
Point
°C
Rel
Hum
%
Delta-T
°C
Wind Press
QNH
hPa
Press
MSL
hPa
Rain since
9am
mm
Dir  Spd
km/h
Gust
km/h
Spd
kts
Gust
kts
03/09:00pm 11.5 7.3 7.4 76 2.0 SE 19 26 10 14 1029.1 1029.2 0.0
03/08:30pm 11.5 9.2 8.9 84 1.3 E 11 24 6 13 1029.1 1029.2 0.0
03/08:00pm 11.9 7.4 7.0 72 2.3 SE 20 28 11 15 1029.0 1029.1 0.0
03/07:30pm 12.1 8.2 7.0 71 2.4 SE 17 26 9 14 1028.9 1029.0 0.0
03/07:00pm 12.1 8.3 5.7 65 3.0 SE 15 20 8 11 1028.8 1028.9 0.0
03/06:30pm 12.1 7.9 5.5 64 3.1 ESE 17 24 9 13 1028.7 1028.8 0.0
03/06:00pm 12.0 7.7 5.2 63 3.1 SE 17 26 9 14 1028.6 1028.7 0.0
03/05:30pm 11.9 7.1 5.5 65 3.0 SE 20 32 11 17 1028.5 1028.6 0.0
03/05:00pm 11.9 7.3 5.5 65 2.9 SE 19 30 10 16 1028.3 1028.4 0.0
03/04:30pm 12.0 7.5 5.9 66 2.9 SE 19 26 10 14 1028.3 1028.4 0.0
03/04:00pm 11.9 7.2 5.1 63 3.1 SE 19 24 10 13 1028.2 1028.3 0.0
03/03:30pm 12.1 7.6 6.2 67 2.8 SE 19 24 10 13 1028.2 1028.3 0.0
03/03:00pm 12.2 8.1 6.3 67 2.8 SE 17 26 9 14 1028.2 1028.3 0.0
03/02:30pm 12.4 8.7 6.5 67 2.8 SE 15 20 8 11 1028.3 1028.4 0.0
03/02:00pm 12.2 7.6 5.8 65 3.0 SE 19 30 10 16 1028.5 1028.6 0.0
03/01:30pm 12.2 7.7 6.3 67 2.8 SE 19 26 10 14 1028.7 1028.8 0.0
03/01:00pm 11.8 7.5 5.4 65 2.9 SE 17 26 9 14 1029.0 1029.1 0.0
03/12:30pm 11.6 8.2 5.9 68 2.7 SE 13 20 7 11 1029.4 1029.5 0.0
03/12:00pm 11.6 7.6 6.5 71 2.4 SE 17 22 9 12 1029.9 1030.0 0.0
03/11:30am 11.6 6.8 5.7 67 2.7 SSE 20 26 11 14 1030.3 1030.4 0.0
03/11:00am 11.6 7.2 6.5 71 2.4 SSE 19 28 10 15 1030.5 1030.6 0.0
03/10:30am 11.3 6.7 5.4 67 2.7 SE 19 24 10 13 1030.5 1030.6 0.0
03/10:00am 11.3 6.2 6.0 70 2.4 SE 22 33 12 18 1030.4 1030.5 0.0
03/09:30am 11.1 6.3 5.4 68 2.6 SSE 20 30 11 16 1030.3 1030.4 0.0
03/09:00am 10.8 6.7 6.0 72 2.2 SE 17 24 9 13 1030.2 1030.3 1.2
03/08:30am 10.6 5.3 5.2 69 2.5 SSE 22 32 12 17 1030.1 1030.2 1.2
03/08:00am 10.4 5.3 6.0 74 2.0 SSE 22 32 12 17 1030.1 1030.2 1.0
03/07:30am 9.3 5.3 6.6 83 1.3 SSE 17 28 9 15 1029.8 1029.9 1.0
03/07:00am 8.9 8.0 7.8 93 0.5 N 2 6 1 3 1029.7 1029.8 1.0
03/06:30am 9.0 8.1 7.9 93 0.5 NE 2 4 1 2 1029.5 1029.6 1.0
03/06:00am 8.9 7.6 7.8 93 0.5 WNW 4 4 2 2 1029.2 1029.3 1.0
03/05:30am 9.0 8.1 7.9 93 0.5 N 2 4 1 2 1029.3 1029.4 1.0
03/05:00am 9.1 8.3 8.0 93 0.5 N 2 6 1 3 1029.2 1029.3 1.0
03/04:30am 9.3 8.5 8.1 92 0.6 N 2 6 1 3 1029.4 1029.5 1.0
03/04:00am 9.5 8.3 8.1 91 0.7 NW 4 6 2 3 1029.3 1029.4 1.0
03/03:30am 9.9 6.7 8.3 90 0.8 E 15 30 8 16 1029.2 1029.3 1.0
03/03:00am 10.1 6.3 8.9 92 0.6 SSE 19 24 10 13 1029.4 1029.5 1.0
03/02:30am 9.9 5.8 8.8 93 0.5 SE 20 32 11 17 1029.7 1029.8 1.0
03/02:00am 9.7 5.5 8.3 91 0.7 SSE 20 30 11 16 1029.7 1029.8 0.8
03/01:30am 10.2 6.2 9.1 93 0.5 S 20 26 11 14 1029.8 1029.9 0.6
03/01:00am 10.5 8.0 8.3 86 1.1 SE 11 20 6 11 1029.8 1029.9 0.2
03/12:30am 11.3 7.0 7.2 76 2.0 SSE 19 26 10 14 1030.0 1030.1 0.2
03/12:00am 11.1 7.5 5.0 66 2.8 S 13 20 7 11 1030.2 1030.3 0.2
 
Date/Time
EST
Temp
°C
App
Temp
°C
Dew
Point
°C
Rel
Hum
%
Delta-T
°C
Wind Press
QNH
hPa
Press
MSL
hPa
Rain since
9am
mm
Dir  Spd
km/h
Gust
km/h
Spd
kts
Gust
kts
02/11:30pm 10.9 7.0 5.2 68 2.6 SSE 15 24 8 13 1030.4 1030.5 0.2
02/11:00pm 10.6 6.2 4.9 68 2.6 SSE 17 28 9 15 1030.4 1030.5 0.2
02/10:30pm 10.8 6.7 6.4 74 2.1 SSE 17 30 9 16 1030.3 1030.4 0.2
02/10:00pm 10.0 6.4 6.9 81 1.4 SSE 15 20 8 11 1030.5 1030.6 0.2
02/09:30pm 10.0 5.8 7.4 84 1.2 SSE 19 26 10 14 1030.5 1030.6 0.2
02/09:00pm 9.9 6.2 8.0 88 0.9 SSE 17 28 9 15 1030.5 1030.6 0.2
02/08:30pm 9.9 6.6 8.0 88 0.9 SSE 15 20 8 11 1030.5 1030.6 0.2
02/08:00pm 9.7 7.4 7.5 86 1.0 SE 9 15 5 8 1030.4 1030.5 0.2
02/07:30pm 9.6 7.2 7.2 85 1.1 SSE 9 15 5 8 1030.4 1030.5 0.2
02/07:00pm 9.9 7.4 8.0 88 0.9 ESE 11 22 6 12 1030.4 1030.5 0.0
02/06:30pm 9.8 6.3 7.1 83 1.3 SSE 15 20 8 11 1030.2 1030.3 0.0
02/06:00pm 9.6 8.2 7.4 86 1.0 SE 4 13 2 7 1030.2 1030.3 0.0
02/05:30pm 9.7 7.3 6.8 82 1.4 SE 9 13 5 7 1030.1 1030.2 0.0
02/05:00pm 10.4 7.7 7.5 82 1.4 SE 11 15 6 8 1030.2 1030.3 0.0
02/04:30pm 10.6 8.9 7.5 81 1.5 SE 6 19 3 10 1030.2 1030.3 0.0
02/04:00pm 11.3 8.5 6.8 74 2.1 SSE 11 17 6 9 1030.3 1030.4 0.0
02/03:30pm 10.8 8.4 6.9 77 1.8 S 9 17 5 9 1030.3 1030.4 0.0
02/03:00pm 11.7 9.7 8.6 81 1.5 S 9 17 5 9 1030.3 1030.4 0.0
02/02:30pm 12.2 9.7 8.3 77 1.9 SW 11 17 6 9 1030.3 1030.4 0.0
02/02:00pm 11.7 8.7 7.8 77 1.9 S 13 19 7 10 1030.5 1030.6 0.0
02/01:30pm 11.6 8.2 7.5 76 2.0 SSW 15 20 8 11 1030.7 1030.8 0.0
02/01:00pm 11.7 10.1 8.2 79 1.7 SSW 6 17 3 9 1030.9 1031.0 0.0
02/12:30pm 11.9 8.7 8.4 79 1.7 S 15 22 8 12 1031.3 1031.4 0.0
02/12:00pm 11.9 9.0 8.0 77 1.9 S 13 22 7 12 1031.6 1031.7 0.0
02/11:30am 11.6 9.2 6.9 73 2.2 S 9 15 5 8 1032.0 1032.1 0.0
02/11:00am 11.0 8.1 8.1 82 1.4 SSW 13 19 7 10 1032.1 1032.2 0.0
02/10:30am 10.5 8.2 7.4 81 1.5 S 9 15 5 8 1032.1 1032.2 0.0
02/10:00am 10.1 7.8 7.5 84 1.2 SW 9 15 5 8 1032.0 1032.1 0.0
02/09:30am 10.0 6.6 7.6 85 1.1 SW 15 22 8 12 1031.7 1031.8 0.0
02/09:00am 9.1 6.3 6.9 86 1.0 SSW 11 17 6 9 1031.7 1031.8 2.4
02/08:30am 8.9 6.6 7.4 90 0.7 SW 9 17 5 9 1031.7 1031.8 2.4
02/08:00am 8.8 6.4 7.1 89 0.8 SSW 9 15 5 8 1031.7 1031.8 2.4
02/07:30am 8.9 6.6 7.4 90 0.7 SSW 9 20 5 11 1031.8 1031.9 2.4
02/07:00am 9.2 6.8 7.2 87 0.9 S 9 17 5 9 1031.6 1031.7 2.4
02/06:30am 9.3 6.3 7.6 89 0.8 S 13 24 7 13 1031.4 1031.5 2.4
02/06:00am 9.4 6.3 7.2 86 1.0 S 13 20 7 11 1031.2 1031.3 2.4
02/05:30am 9.5 6.7 7.1 85 1.1 SSW 11 17 6 9 1031.1 1031.2 2.4
02/05:00am 9.0 6.1 6.3 83 1.2 SSW 11 15 6 8 1031.2 1031.3 2.4
02/04:30am 9.5 6.0 7.4 87 1.0 SW 15 22 8 12 1031.2 1031.3 2.4
02/04:00am 9.7 7.3 7.0 83 1.3 S 9 15 5 8 1031.2 1031.3 2.4
02/03:30am 9.5 7.1 6.8 83 1.3 SSW 9 15 5 8 1031.4 1031.5 2.4
02/03:00am 9.5 7.3 6.2 80 1.5 S 7 13 4 7 1031.6 1031.7 2.4
02/02:30am 9.6 6.8 7.0 84 1.2 SSW 11 17 6 9 1031.7 1031.8 2.4
02/02:00am 9.7 7.0 7.3 85 1.1 SSW 11 19 6 10 1031.7 1031.8 2.4
02/01:30am 9.6 6.1 7.4 86 1.0 S 15 24 8 13 1031.8 1031.9 2.4
02/01:00am 9.2 6.4 6.8 85 1.1 S 11 17 6 9 1031.8 1031.9 2.4
02/12:30am 9.1 6.1 7.5 90 0.8 SSW 13 19 7 10 1031.9 1032.0 2.4
02/12:00am 9.1 6.4 7.5 90 0.8 S 11 17 6 9 1032.0 1032.1 2.4
 
Date/Time
EST
Temp
°C
App
Temp
°C
Dew
Point
°C
Rel
Hum
%
Delta-T
°C
Wind Press
QNH
hPa
Press
MSL
hPa
Rain since
9am
mm
Dir  Spd
km/h
Gust
km/h
Spd
kts
Gust
kts
01/11:30pm 9.6 6.6 7.7 88 0.9 S 13 19 7 10 1032.1 1032.2 1.6
01/11:00pm 9.2 5.8 7.8 91 0.7 SSE 15 19 8 10 1032.0 1032.1 1.6
01/10:30pm 9.4 6.4 7.8 90 0.8 SSE 13 19 7 10 1032.0 1032.1 1.4
01/10:00pm 9.5 8.0 8.4 93 0.5 S 6 9 3 5 1032.1 1032.2 1.0
01/09:30pm 9.3 5.0 7.7 90 0.8 SSE 20 24 11 13 1032.2 1032.3 0.8
01/09:00pm 9.7 6.1 8.3 91 0.7 S 17 20 9 11 1032.2 1032.3 0.8
01/08:30pm 9.4 6.8 7.8 90 0.8 S 11 17 6 9 1032.2 1032.3 0.8
01/08:00pm 9.3 7.7 8.2 93 0.5 SSE 6 11 3 6 1032.1 1032.2 0.8
01/07:30pm 9.4 7.7 8.2 92 0.6 SE 7 13 4 7 1031.9 1032.0 0.4
01/07:00pm 9.3 7.1 7.9 91 0.7 SSE 9 15 5 8 1031.8 1031.9 0.2
01/06:30pm 10.1 7.5 7.9 86 1.1 SSW 11 17 6 9 1031.6 1031.7 0.0
01/06:00pm 10.3 7.8 8.2 87 1.0 S 11 17 6 9 1031.5 1031.6 0.0
01/05:30pm 9.9 7.7 6.4 79 1.6 S 7 11 4 6 1031.4 1031.5 0.0
01/05:00pm 10.7 8.3 7.2 79 1.7 S 9 17 5 9 1031.3 1031.4 0.0
01/04:30pm 11.4 9.6 7.3 76 2.0 SSE 6 17 3 9 1031.4 1031.5 0.0
01/04:00pm 11.2 9.3 7.7 79 1.7 SW 7 13 4 7 1031.3 1031.4 0.0
01/03:30pm 11.6 10.3 7.7 77 1.9 SSW 4 7 2 4 1031.4 1031.5 0.0
01/03:00pm 12.2 11.0 8.1 76 2.0 SSW 4 6 2 3 1031.4 1031.5 0.0
01/02:30pm 10.7 9.2 8.6 87 1.0 E 6 9 3 5 1031.5 1031.6 0.0
01/02:00pm 11.9 9.2 7.4 74 2.2 ESE 11 15 6 8 1031.5 1031.6 0.0
01/01:30pm 11.8 8.8 7.9 77 1.9 SSE 13 20 7 11 1031.8 1031.9 0.0
01/01:00pm 11.8 9.1 5.4 65 2.9 S 9 19 5 10 1032.0 1032.1 0.0
01/12:30pm 12.3 9.5 5.2 62 3.3 S 9 17 5 9 1032.1 1032.2 0.0
01/12:00pm 11.5 8.2 4.3 61 3.2 SSE 11 22 6 12 1032.3 1032.4 0.0
01/11:30am 11.7 8.8 4.9 63 3.1 SE 9 15 5 8 1032.3 1032.4 0.0
01/11:00am 11.4 7.7 4.4 62 3.1 SSE 13 24 7 13 1032.5 1032.6 0.0
01/10:30am 11.3 8.1 5.2 66 2.8 S 11 20 6 11 1032.4 1032.5 0.0
01/10:00am 10.9 7.1 5.7 70 2.4 SSE 15 24 8 13 1032.4 1032.5 0.0
01/09:30am 10.5 6.7 7.6 82 1.4 SSE 17 26 9 14 1032.4 1032.5 0.0
01/09:00am 11.1 6.5 5.6 69 2.5 S 19 24 10 13 1032.1 1032.2 1.2
01/08:30am 10.9 5.8 3.2 59 3.4 SSE 19 28 10 15 1032.2 1032.3 1.2
01/08:00am 11.2 6.3 5.1 66 2.8 SSE 20 35 11 19 1031.9 1032.0 1.2
01/07:30am 11.2 7.0 5.5 68 2.6 SSE 17 24 9 13 1031.7 1031.8 1.2
01/07:00am 10.9 5.8 3.9 62 3.1 SSE 20 32 11 17 1031.6 1031.7 1.2
01/06:30am 11.1 6.7 4.6 64 2.9 S 17 26 9 14 1031.1 1031.2 1.2
01/06:00am 11.0 6.7 5.1 67 2.7 SSE 17 24 9 13 1030.9 1031.0 1.2
01/05:30am 10.8 7.5 4.3 64 2.9 SSE 11 15 6 8 1030.7 1030.8 1.2
01/05:00am 11.0 5.9 4.2 63 3.0 SSE 20 28 11 15 1030.5 1030.6 1.2
01/04:30am 11.0 6.6 4.5 64 2.9 SSE 17 28 9 15 1030.5 1030.6 1.2
01/04:00am 11.2 6.6 5.5 68 2.6 SSE 19 28 10 15 1030.3 1030.4 1.2
01/03:30am 11.3 5.9 4.5 63 3.1 SSE 22 32 12 17 1030.4 1030.5 1.2
01/03:00am 11.3 6.3 4.7 64 3.0 SSE 20 28 11 15 1030.4 1030.5 1.2
01/02:30am 11.2 6.4 5.7 69 2.5 SE 20 30 11 16 1030.5 1030.6 1.2
01/02:00am 11.1 5.7 4.3 63 3.0 SSE 22 32 12 17 1030.4 1030.5 1.2
01/01:30am 11.2 6.8 4.9 65 2.9 SSE 17 24 9 13 1030.2 1030.3 1.2
01/01:00am 11.1 7.8 4.8 65 2.8 SSE 11 17 6 9 1030.3 1030.4 1.2
01/12:30am 11.3 6.4 5.0 65 2.9 SSE 20 30 11 16 1030.4 1030.5 1.2
01/12:00am 11.5 5.5 5.2 65 2.9 SSE 26 33 14 18 1030.3 1030.4 1.2
 
Date/Time
EST
Temp
°C
App
Temp
°C
Dew
Point
°C
Rel
Hum
%
Delta-T
°C
Wind Press
QNH
hPa
Press
MSL
hPa
Rain since
9am
mm
Dir  Spd
km/h
Gust
km/h
Spd
kts
Gust
kts
30/11:30pm 11.7 5.9 6.4 70 2.5 SSE 26 35 14 19 1030.2 1030.3 1.2
30/11:00pm 11.7 7.5 5.8 67 2.7 SSE 17 24 9 13 1029.9 1030.0 1.2
30/10:30pm 11.8 6.8 6.5 70 2.5 SSE 22 30 12 16 1029.8 1029.9 1.2
30/10:00pm 12.0 7.1 6.9 71 2.4 SSE 22 30 12 16 1029.7 1029.8 1.2
30/09:30pm 11.9 7.1 7.2 73 2.3 SSE 22 30 12 16 1029.4 1029.5 1.2

Other formats

Comma delimited format used in spreadsheet applications
http://www.bom.gov.au/fwo/IDV60801/IDV60801.94830.axf

JavaScript Object Notation format (JSON) in row-major order
http://www.bom.gov.au/fwo/IDV60801/IDV60801.94830.json

Data quality

Most of these data are generated automatically and are frequently updated. Quality checks on data are not normally performed. It is possible for incorrect values to appear. Refer to information at About Latest Weather Observations and please check the disclaimer before using these data.